Airfield :
LOGIN :

Register | Disclaimer

   EN    FR    IT 

 










Legend :    VFR   Marginal VFR   IFR   Intensive IFR   Very Intensive IFR
Visi :
Ceiling :
>= 8 km
>= 3000ft
5 to 8 km
1000 to 3000 ft
1500m to 5 km
500 to 1000 ft
800 to 1500m
200 to 500 ft
< 800m
< 200 ft
Symbols :   Thunderstorms  Fog  Heavy snow  Heavy precipitations  Wind > 20 kt
SIGMETs :     Misc.  Thunderstorms  Icing  Turbulence  Mountain Waves  Volcanic Ashes






- Airport Elevation : 401 ft
- IATA code : LEQ


EGHC - Land's End

CURRENT METAR :
  • 190850Z 30008KT 9999 FEW018 FEW022CB 12/09 Q1001

EXPIRED METARs :
  • 190820Z 30008KT 9999 FEW016 FEW018CB 11/10 Q1001
  • 190750Z 31006KT 9999 FEW018 FEW020CB 09/08 Q1001
  • 190720Z 29005KT 9999 FEW015CB FEW018CB 09/08 Q1001
  • 190650Z 30006KT 9999 VCSH FEW015CB FEW018CB 08/07 Q1000
  • 190620Z 31012KT 9999 -SHRA FEW012 FEW015CB SCT020 10/08 Q1000

TAF TAF EGHC
Valid from the 19 at 09:00 until the 19 at 18:00 UTC


190759Z 1909/1918 30009KT 9999 SCT025
TEMPO 1909/1918 6000 SHRA
PROB30
TEMPO 1909/1918 3000 +SHRA BKN010 BKN020CB



MET'MAP, your aeronautical weather chart ! - Copyright ORBIFLY December 2007 - Disclaimer

ORBIFLY MET'MAP TEAM :

Programming & Development : Alexandra Zaïnal
Concept & Development : Baudouin d'Aumeries
Co-Development & Prog : Marc-Olivier Méhu
Technical & hardware support : Manuel Goepfert

Contact : metmap@orbifly.com




SOURCES & CREDITS :

   NOAA